sensor_id;sensor_type;location;lat;lon;timestamp;P1;durP1;ratioP1;P2;durP2;ratioP2
64560;SDS011;50960;46.838;16.838;2023-09-30T03:58:17;11.00;;;8.48;;
64560;SDS011;50960;46.838;16.838;2023-09-30T04:00:44;9.25;;;8.02;;
64560;SDS011;50960;46.838;16.838;2023-09-30T04:03:11;8.38;;;7.57;;
64560;SDS011;50960;46.838;16.838;2023-09-30T04:05:37;8.23;;;7.30;;
64560;SDS011;50960;46.838;16.838;2023-09-30T04:08:03;8.95;;;7.70;;
64560;SDS011;50960;46.838;16.838;2023-09-30T04:10:30;10.27;;;7.65;;
64560;SDS011;50960;46.838;16.838;2023-09-30T04:12:57;10.63;;;7.63;;
64560;SDS011;50960;46.838;16.838;2023-09-30T04:15:24;8.80;;;7.60;;
64560;SDS011;50960;46.838;16.838;2023-09-30T04:17:50;8.80;;;7.60;;
64560;SDS011;50960;46.838;16.838;2023-09-30T04:20:18;11.35;;;7.30;;
64560;SDS011;50960;46.838;16.838;2023-09-30T04:22:48;8.68;;;7.82;;
64560;SDS011;50960;46.838;16.838;2023-09-30T04:25:16;9.57;;;7.97;;
64560;SDS011;50960;46.838;16.838;2023-09-30T04:27:43;8.43;;;7.60;;
64560;SDS011;50960;46.838;16.838;2023-09-30T04:30:10;10.23;;;7.70;;
64560;SDS011;50960;46.838;16.838;2023-09-30T04:32:37;8.70;;;7.90;;
64560;SDS011;50960;46.838;16.838;2023-09-30T04:35:04;8.40;;;7.32;;
64560;SDS011;50960;46.838;16.838;2023-09-30T04:37:31;7.90;;;6.97;;
64560;SDS011;50960;46.838;16.838;2023-09-30T04:39:57;8.10;;;7.35;;
64560;SDS011;50960;46.838;16.838;2023-09-30T04:42:24;11.25;;;7.28;;
64560;SDS011;50960;46.838;16.838;2023-09-30T04:44:52;9.25;;;8.10;;
64560;SDS011;50960;46.838;16.838;2023-09-30T04:47:21;8.30;;;7.50;;
64560;SDS011;50960;46.838;16.838;2023-09-30T04:49:47;18.58;;;12.57;;
64560;SDS011;50960;46.838;16.838;2023-09-30T04:52:14;18.27;;;14.25;;
64560;SDS011;50960;46.838;16.838;2023-09-30T04:54:40;18.95;;;13.98;;
64560;SDS011;50960;46.838;16.838;2023-09-30T04:57:06;21.88;;;14.63;;
64560;SDS011;50960;46.838;16.838;2023-09-30T04:59:33;17.17;;;12.80;;
64560;SDS011;50960;46.838;16.838;2023-09-30T05:01:59;16.65;;;12.30;;
64560;SDS011;50960;46.838;16.838;2023-09-30T05:04:26;15.88;;;11.95;;
64560;SDS011;50960;46.838;16.838;2023-09-30T05:06:52;16.15;;;12.23;;
64560;SDS011;50960;46.838;16.838;2023-09-30T05:09:18;15.77;;;11.57;;
64560;SDS011;50960;46.838;16.838;2023-09-30T05:11:46;18.67;;;12.70;;
64560;SDS011;50960;46.838;16.838;2023-09-30T05:14:12;14.75;;;10.73;;
64560;SDS011;50960;46.838;16.838;2023-09-30T05:16:39;13.77;;;11.00;;
64560;SDS011;50960;46.838;16.838;2023-09-30T05:19:09;15.32;;;10.70;;
64560;SDS011;50960;46.838;16.838;2023-09-30T05:21:35;16.80;;;11.60;;
64560;SDS011;50960;46.838;16.838;2023-09-30T05:24:03;13.57;;;11.10;;
64560;SDS011;50960;46.838;16.838;2023-09-30T08:02:12;12.55;;;10.85;;
64560;SDS011;50960;46.838;16.838;2023-09-30T08:04:39;13.50;;;11.15;;
64560;SDS011;50960;46.838;16.838;2023-09-30T08:07:05;15.60;;;11.45;;
64560;SDS011;50960;46.838;16.838;2023-09-30T08:09:31;13.73;;;11.25;;
64560;SDS011;50960;46.838;16.838;2023-09-30T08:11:58;15.43;;;11.60;;
64560;SDS011;50960;46.838;16.838;2023-09-30T08:14:24;14.32;;;11.98;;
64560;SDS011;50960;46.838;16.838;2023-09-30T08:16:51;13.57;;;11.80;;
64560;SDS011;50960;46.838;16.838;2023-09-30T08:19:17;12.73;;;11.40;;
64560;SDS011;50960;46.838;16.838;2023-09-30T08:21:46;12.35;;;10.95;;
64560;SDS011;50960;46.838;16.838;2023-09-30T08:24:12;15.95;;;11.10;;
64560;SDS011;50960;46.838;16.838;2023-09-30T08:26:39;14.65;;;13.00;;
64560;SDS011;50960;46.838;16.838;2023-09-30T08:29:05;14.85;;;11.93;;
64560;SDS011;50960;46.838;16.838;2023-09-30T08:31:35;15.57;;;11.32;;
64560;SDS011;50960;46.838;16.838;2023-09-30T08:34:01;13.13;;;10.38;;
64560;SDS011;50960;46.838;16.838;2023-09-30T08:36:29;13.95;;;9.85;;
64560;SDS011;50960;46.838;16.838;2023-09-30T08:38:57;10.32;;;9.18;;
64560;SDS011;50960;46.838;16.838;2023-09-30T08:41:26;10.15;;;9.07;;
64560;SDS011;50960;46.838;16.838;2023-09-30T08:44:02;11.77;;;9.15;;
64560;SDS011;50960;46.838;16.838;2023-09-30T08:46:30;10.18;;;9.13;;
64560;SDS011;50960;46.838;16.838;2023-09-30T08:48:58;11.63;;;9.05;;
64560;SDS011;50960;46.838;16.838;2023-09-30T08:51:29;11.07;;;9.98;;
64560;SDS011;50960;46.838;16.838;2023-09-30T08:53:56;11.95;;;9.57;;
64560;SDS011;50960;46.838;16.838;2023-09-30T08:56:27;10.13;;;8.55;;
64560;SDS011;50960;46.838;16.838;2023-09-30T08:58:58;12.60;;;8.15;;
64560;SDS011;50960;46.838;16.838;2023-09-30T09:01:29;9.07;;;8.18;;
64560;SDS011;50960;46.838;16.838;2023-09-30T09:03:56;10.57;;;8.23;;
64560;SDS011;50960;46.838;16.838;2023-09-30T09:06:24;9.23;;;8.23;;
64560;SDS011;50960;46.838;16.838;2023-09-30T09:08:51;10.20;;;8.48;;
64560;SDS011;50960;46.838;16.838;2023-09-30T09:11:18;9.02;;;8.13;;
64560;SDS011;50960;46.838;16.838;2023-09-30T09:13:45;10.70;;;9.60;;
64560;SDS011;50960;46.838;16.838;2023-09-30T09:16:16;12.35;;;11.05;;
64560;SDS011;50960;46.838;16.838;2023-09-30T09:18:44;13.05;;;10.35;;
64560;SDS011;50960;46.838;16.838;2023-09-30T09:21:14;12.05;;;9.93;;
64560;SDS011;50960;46.838;16.838;2023-09-30T09:23:45;10.55;;;9.23;;
64560;SDS011;50960;46.838;16.838;2023-09-30T09:26:22;10.35;;;9.20;;
64560;SDS011;50960;46.838;16.838;2023-09-30T09:28:57;10.88;;;9.00;;
64560;SDS011;50960;46.838;16.838;2023-09-30T09:31:26;11.32;;;9.23;;
64560;SDS011;50960;46.838;16.838;2023-09-30T09:33:54;13.40;;;9.07;;
64560;SDS011;50960;46.838;16.838;2023-09-30T09:36:21;9.88;;;8.80;;
64560;SDS011;50960;46.838;16.838;2023-09-30T09:39:03;11.35;;;8.88;;
64560;SDS011;50960;46.838;16.838;2023-09-30T09:41:29;9.52;;;8.40;;
64560;SDS011;50960;46.838;16.838;2023-09-30T09:43:56;9.75;;;8.65;;
64560;SDS011;50960;46.838;16.838;2023-09-30T09:46:25;11.23;;;8.80;;
64560;SDS011;50960;46.838;16.838;2023-09-30T09:48:54;10.07;;;8.57;;
64560;SDS011;50960;46.838;16.838;2023-09-30T09:51:23;9.55;;;8.40;;
64560;SDS011;50960;46.838;16.838;2023-09-30T09:53:49;11.27;;;8.38;;
64560;SDS011;50960;46.838;16.838;2023-09-30T09:56:17;10.57;;;8.25;;
64560;SDS011;50960;46.838;16.838;2023-09-30T09:58:46;9.20;;;8.23;;
64560;SDS011;50960;46.838;16.838;2023-09-30T10:01:14;9.82;;;8.50;;
64560;SDS011;50960;46.838;16.838;2023-09-30T10:03:40;9.30;;;7.90;;
64560;SDS011;50960;46.838;16.838;2023-09-30T10:06:08;10.68;;;8.20;;
64560;SDS011;50960;46.838;16.838;2023-09-30T10:08:36;9.60;;;8.20;;
64560;SDS011;50960;46.838;16.838;2023-09-30T10:11:06;11.63;;;8.55;;
64560;SDS011;50960;46.838;16.838;2023-09-30T10:19:24;9.13;;;8.23;;
64560;SDS011;50960;46.838;16.838;2023-09-30T10:24:49;9.90;;;8.48;;
64560;SDS011;50960;46.838;16.838;2023-09-30T10:35:20;9.90;;;7.50;;
64560;SDS011;50960;46.838;16.838;2023-09-30T10:40:53;9.10;;;7.70;;
64560;SDS011;50960;46.838;16.838;2023-09-30T10:43:32;10.05;;;8.05;;
64560;SDS011;50960;46.838;16.838;2023-09-30T10:46:01;10.48;;;8.23;;
64560;SDS011;50960;46.838;16.838;2023-09-30T10:48:34;11.80;;;9.00;;
64560;SDS011;50960;46.838;16.838;2023-09-30T10:51:01;12.65;;;8.32;;
64560;SDS011;50960;46.838;16.838;2023-09-30T10:53:44;10.15;;;7.72;;
64560;SDS011;50960;46.838;16.838;2023-09-30T10:56:17;12.57;;;8.70;;
64560;SDS011;50960;46.838;16.838;2023-09-30T10:58:46;10.10;;;7.78;;
64560;SDS011;50960;46.838;16.838;2023-09-30T11:01:14;12.65;;;7.63;;
64560;SDS011;50960;46.838;16.838;2023-09-30T11:03:44;9.57;;;7.55;;
64560;SDS011;50960;46.838;16.838;2023-09-30T11:06:12;11.98;;;8.15;;
64560;SDS011;50960;46.838;16.838;2023-09-30T11:08:50;11.30;;;8.38;;
64560;SDS011;50960;46.838;16.838;2023-09-30T11:11:19;11.52;;;7.38;;
64560;SDS011;50960;46.838;16.838;2023-09-30T11:13:57;11.48;;;7.90;;
64560;SDS011;50960;46.838;16.838;2023-09-30T11:16:23;10.40;;;7.43;;
64560;SDS011;50960;46.838;16.838;2023-09-30T11:18:53;11.27;;;7.85;;
64560;SDS011;50960;46.838;16.838;2023-09-30T11:21:21;13.15;;;7.65;;
64560;SDS011;50960;46.838;16.838;2023-09-30T11:23:49;10.13;;;7.38;;
64560;SDS011;50960;46.838;16.838;2023-09-30T11:26:22;10.07;;;7.53;;
64560;SDS011;50960;46.838;16.838;2023-09-30T11:29:05;10.55;;;7.70;;
64560;SDS011;50960;46.838;16.838;2023-09-30T11:31:43;9.30;;;7.22;;
64560;SDS011;50960;46.838;16.838;2023-09-30T11:40:08;14.25;;;7.80;;
64560;SDS011;50960;46.838;16.838;2023-09-30T11:42:39;11.15;;;7.60;;
64560;SDS011;50960;46.838;16.838;2023-09-30T11:45:19;12.35;;;7.47;;
64560;SDS011;50960;46.838;16.838;2023-09-30T11:47:47;11.27;;;7.13;;
64560;SDS011;50960;46.838;16.838;2023-09-30T11:50:14;17.08;;;7.72;;
64560;SDS011;50960;46.838;16.838;2023-09-30T11:52:43;12.50;;;7.68;;
64560;SDS011;50960;46.838;16.838;2023-09-30T11:55:12;11.77;;;7.20;;
64560;SDS011;50960;46.838;16.838;2023-09-30T11:57:38;9.63;;;7.18;;
64560;SDS011;50960;46.838;16.838;2023-09-30T12:00:05;11.88;;;7.35;;
64560;SDS011;50960;46.838;16.838;2023-09-30T12:02:39;12.13;;;7.75;;
64560;SDS011;50960;46.838;16.838;2023-09-30T12:05:06;12.38;;;7.25;;
64560;SDS011;50960;46.838;16.838;2023-09-30T18:30:30;22.15;;;13.52;;
64560;SDS011;50960;46.838;16.838;2023-09-30T18:32:57;27.30;;;14.68;;
64560;SDS011;50960;46.838;16.838;2023-09-30T18:35:24;27.65;;;14.57;;
64560;SDS011;50960;46.838;16.838;2023-09-30T18:37:50;26.52;;;14.73;;
64560;SDS011;50960;46.838;16.838;2023-09-30T18:40:16;23.40;;;13.48;;
64560;SDS011;50960;46.838;16.838;2023-09-30T18:42:43;21.17;;;13.00;;
64560;SDS011;50960;46.838;16.838;2023-09-30T18:45:09;21.13;;;12.20;;
64560;SDS011;50960;46.838;16.838;2023-09-30T18:47:37;22.17;;;12.05;;
64560;SDS011;50960;46.838;16.838;2023-09-30T18:50:04;21.08;;;12.48;;
64560;SDS011;50960;46.838;16.838;2023-09-30T18:52:31;20.60;;;11.85;;
64560;SDS011;50960;46.838;16.838;2023-09-30T18:54:58;18.70;;;11.23;;
64560;SDS011;50960;46.838;16.838;2023-09-30T18:57:25;21.67;;;11.60;;
64560;SDS011;50960;46.838;16.838;2023-09-30T18:59:53;20.05;;;11.02;;
64560;SDS011;50960;46.838;16.838;2023-09-30T19:02:20;20.25;;;10.45;;
64560;SDS011;50960;46.838;16.838;2023-09-30T19:04:46;19.73;;;10.98;;
64560;SDS011;50960;46.838;16.838;2023-09-30T19:07:15;17.70;;;10.00;;
64560;SDS011;50960;46.838;16.838;2023-09-30T19:09:42;16.67;;;10.25;;
64560;SDS011;50960;46.838;16.838;2023-09-30T19:12:09;16.77;;;10.20;;
64560;SDS011;50960;46.838;16.838;2023-09-30T19:14:35;16.48;;;10.32;;
64560;SDS011;50960;46.838;16.838;2023-09-30T19:17:02;17.98;;;9.73;;
64560;SDS011;50960;46.838;16.838;2023-09-30T19:19:28;16.35;;;10.00;;
64560;SDS011;50960;46.838;16.838;2023-09-30T19:21:58;18.13;;;10.65;;
64560;SDS011;50960;46.838;16.838;2023-09-30T19:24:25;18.17;;;10.75;;
64560;SDS011;50960;46.838;16.838;2023-09-30T19:26:51;18.02;;;10.38;;
64560;SDS011;50960;46.838;16.838;2023-09-30T19:29:17;20.38;;;11.02;;
64560;SDS011;50960;46.838;16.838;2023-09-30T19:31:43;16.45;;;10.18;;
64560;SDS011;50960;46.838;16.838;2023-09-30T19:34:10;18.52;;;10.27;;
64560;SDS011;50960;46.838;16.838;2023-09-30T19:36:37;18.52;;;9.65;;
64560;SDS011;50960;46.838;16.838;2023-09-30T19:39:03;18.38;;;10.73;;
64560;SDS011;50960;46.838;16.838;2023-09-30T19:41:29;18.55;;;9.77;;
